Time;durP1;ratioP1;P1;durP2;ratioP2;P2;SDS_P1;SDS_P2;PMS_P1;PMS_P2;Temp;Humidity;BMP_temperature;BMP_pressure;BME280_temperature;BME280_humidity;BME280_pressure;Samples;Min_cycle;Max_cycle;Signal;HPM_P1;HPM_P2
2023/07/08 00:02:12;;;;;;;0.00;0.00;;;;;;;20.88;55.66;101807.78;5110281;28;20110;-77
2023/07/08 00:04:39;;;;;;;0.10;0.10;;;;;;;20.82;55.64;101798.19;5104550;28;20047;-77
2023/07/08 00:07:10;;;;;;;0.00;0.00;;;;;;;20.79;55.83;101803.72;5118158;28;20035;-78
2023/07/08 00:09:36;;;;;;;0.10;0.10;;;;;;;20.76;55.80;101803.88;5108117;28;20035;-77
2023/07/08 00:12:09;;;;;;;0.45;0.45;;;;;;;20.73;56.50;101792.38;5103210;28;20136;-76
2023/07/08 00:14:35;;;;;;;0.20;0.20;;;;;;;20.67;55.54;101789.00;5098968;27;20110;-77
2023/07/08 00:17:02;;;;;;;0.00;0.00;;;;;;;20.61;55.84;101789.28;5103864;28;20024;-77
2023/07/08 00:19:28;;;;;;;0.00;0.00;;;;;;;20.59;55.56;101790.31;5103642;28;20016;-77
2023/07/08 00:21:54;;;;;;;0.10;0.10;;;;;;;20.57;55.24;101792.19;5101465;28;20596;-77
2023/07/08 00:24:20;;;;;;;0.00;0.00;;;;;;;20.53;55.06;101786.94;5100055;28;20067;-77
2023/07/08 00:26:46;;;;;;;1.65;1.55;;;;;;;20.49;55.89;101776.41;5113215;28;20042;-77
2023/07/08 00:29:15;;;;;;;0.00;0.00;;;;;;;20.46;55.56;101779.22;5099077;28;20030;-77
2023/07/08 00:31:41;;;;;;;0.00;0.00;;;;;;;20.42;56.25;101781.19;5102782;28;20072;-77
2023/07/08 00:34:07;;;;;;;0.00;0.00;;;;;;;20.39;56.23;101788.53;5101803;28;20481;-77
2023/07/08 00:36:35;;;;;;;1.20;0.45;;;;;;;20.35;55.90;101782.44;5099787;28;20020;-77
2023/07/08 00:39:01;;;;;;;0.00;0.00;;;;;;;20.32;55.99;101783.41;5102552;28;20051;-77
2023/07/08 00:41:33;;;;;;;0.22;0.22;;;;;;;20.30;56.02;101788.03;5103350;28;20027;-77
2023/07/08 00:44:00;;;;;;;0.20;0.20;;;;;;;20.27;55.53;101782.75;5092672;28;20401;-78
2023/07/08 00:51:44;;;;;;;0.00;0.00;;;;;;;20.18;55.95;101781.38;5161487;27;20386;-78
2023/07/08 00:54:13;;;;;;;0.10;0.10;;;;;;;20.15;56.95;101775.25;5142693;28;20035;-78
2023/07/08 00:56:45;;;;;;;0.10;0.10;;;;;;;20.13;57.02;101769.09;5139038;28;20027;-79
2023/07/08 01:01:54;;;;;;;0.00;0.00;;;;;;;20.05;56.40;101766.75;5110234;27;20385;-78
2023/07/08 01:04:28;;;;;;;0.00;0.00;;;;;;;20.03;56.60;101766.81;5098823;28;20036;-78
2023/07/08 01:06:57;;;;;;;0.00;0.00;;;;;;;20.02;56.88;101767.72;5098705;28;20028;-77
2023/07/08 01:09:44;;;;;;;0.20;0.20;;;;;;;20.07;57.57;101763.97;5098795;28;20103;-78
2023/07/08 01:12:16;;;;;;;0.00;0.00;;;;;;;20.00;56.82;101768.75;5099815;28;20016;-78
2023/07/08 01:14:43;;;;;;;0.00;0.00;;;;;;;19.97;56.70;101767.06;5101484;28;20040;-78
2023/07/08 01:17:13;;;;;;;0.10;0.10;;;;;;;19.96;56.48;101765.34;5097698;28;20024;-78
2023/07/08 01:19:41;;;;;;;0.00;0.00;;;;;;;19.93;56.55;101762.78;5097138;28;20019;-78
2023/07/08 01:22:08;;;;;;;0.00;0.00;;;;;;;19.93;57.06;101759.22;5095307;28;20063;-77
2023/07/08 01:24:38;;;;;;;0.00;0.00;;;;;;;19.88;56.80;101757.59;5094071;28;20397;-77
2023/07/08 01:27:08;;;;;;;0.03;0.03;;;;;;;19.88;56.96;101754.06;5082639;28;20036;-77
2023/07/08 01:29:34;;;;;;;0.10;0.10;;;;;;;19.83;57.12;101748.00;5087376;28;20021;-77
2023/07/08 01:32:02;;;;;;;0.03;0.03;;;;;;;19.79;57.42;101751.72;5081120;28;20028;-77
2023/07/08 01:34:31;;;;;;;0.10;0.10;;;;;;;19.78;57.16;101755.38;5086372;28;20020;-77
2023/07/08 01:36:58;;;;;;;0.10;0.10;;;;;;;19.77;57.99;101759.00;5086811;28;20409;-77
2023/07/08 01:39:26;;;;;;;0.03;0.03;;;;;;;19.76;57.51;101759.94;5084494;28;20032;-77
2023/07/08 01:41:53;;;;;;;0.50;0.50;;;;;;;19.73;57.39;101753.75;5081575;28;20043;-77
2023/07/08 01:44:36;;;;;;;0.10;0.10;;;;;;;19.76;57.35;101752.75;5089775;28;20028;-77
2023/07/08 01:47:14;;;;;;;0.10;0.10;;;;;;;19.73;57.58;101745.69;5093867;28;20032;-78
2023/07/08 01:49:43;;;;;;;0.10;0.10;;;;;;;19.66;57.52;101744.19;5091465;28;20024;-78
2023/07/08 01:52:10;;;;;;;0.00;0.00;;;;;;;19.73;57.19;101737.63;5091938;28;20119;-78
2023/07/08 01:54:36;;;;;;;0.10;0.10;;;;;;;19.67;57.07;101743.25;5089417;28;20034;-78
2023/07/08 01:57:03;;;;;;;0.00;0.00;;;;;;;19.59;57.16;101733.78;5090427;28;20024;-78
2023/07/08 01:59:29;;;;;;;0.10;0.10;;;;;;;19.57;57.20;101736.56;5088641;28;20071;-78
2023/07/08 02:01:56;;;;;;;0.00;0.00;;;;;;;19.55;56.80;101733.03;5091239;28;20043;-78
2023/07/08 02:04:24;;;;;;;0.00;0.00;;;;;;;19.53;56.98;101725.06;5096696;28;20036;-77
2023/07/08 02:06:53;;;;;;;0.00;0.00;;;;;;;19.54;57.30;101731.31;5094729;28;20064;-78
2023/07/08 02:09:19;;;;;;;0.10;0.10;;;;;;;19.51;57.34;101716.19;5091401;28;20028;-78
2023/07/08 02:11:45;;;;;;;0.03;0.03;;;;;;;19.51;57.13;101720.69;5083380;28;20111;-77
2023/07/08 02:14:11;;;;;;;0.05;0.05;;;;;;;19.48;57.14;101718.16;5074708;28;20081;-77
2023/07/08 02:16:37;;;;;;;0.10;0.10;;;;;;;19.45;57.01;101718.28;5082403;28;20028;-78
2023/07/08 02:19:03;;;;;;;0.10;0.10;;;;;;;19.42;56.91;101715.72;5080555;28;20439;-78
2023/07/08 02:21:30;;;;;;;0.10;0.10;;;;;;;19.39;58.06;101712.22;5075900;28;20028;-78
2023/07/08 02:23:57;;;;;;;0.03;0.03;;;;;;;19.35;57.57;101705.25;5076733;28;20036;-77
2023/07/08 02:26:24;;;;;;;0.00;0.00;;;;;;;19.32;58.03;101705.38;5079634;28;20036;-77
2023/07/08 02:28:53;;;;;;;0.03;0.03;;;;;;;19.33;57.46;101704.44;5077570;28;20034;-78
2023/07/08 02:31:19;;;;;;;0.00;0.00;;;;;;;19.28;57.96;101709.13;5077954;28;20044;-78
2023/07/08 02:33:45;;;;;;;0.10;0.10;;;;;;;19.26;58.17;101710.13;5079670;28;20032;-78
2023/07/08 02:36:11;;;;;;;0.17;0.17;;;;;;;19.23;58.02;101705.78;5091205;28;20123;-78
2023/07/08 02:38:37;;;;;;;0.00;0.00;;;;;;;19.17;58.93;101700.66;5080083;28;20043;-78
2023/07/08 02:41:03;;;;;;;0.05;0.05;;;;;;;19.13;58.80;101699.91;5081639;28;20016;-77
2023/07/08 02:43:29;;;;;;;0.00;0.00;;;;;;;19.11;58.37;101700.91;5083114;28;20084;-78
2023/07/08 02:45:55;;;;;;;0.00;0.00;;;;;;;19.10;58.97;101709.91;5081659;28;20039;-78
2023/07/08 02:48:21;;;;;;;0.00;0.00;;;;;;;19.06;58.80;101704.66;5081371;28;20084;-77
2023/07/08 02:50:47;;;;;;;0.00;0.00;;;;;;;19.04;58.13;101690.44;5082692;28;20092;-77
2023/07/08 02:53:14;;;;;;;0.10;0.10;;;;;;;19.03;58.50;101695.88;5085964;28;20037;-77
2023/07/08 02:55:42;;;;;;;0.00;0.00;;;;;;;19.03;58.17;101704.78;5083842;28;20074;-78
2023/07/08 02:58:09;;;;;;;0.47;0.47;;;;;;;19.02;58.52;101696.81;5081919;28;20020;-77
2023/07/08 03:00:37;;;;;;;0.10;0.10;;;;;;;19.02;58.56;101696.81;5086579;28;20020;-77
2023/07/08 03:03:03;;;;;;;0.10;0.10;;;;;;;19.01;58.49;101695.91;5085622;28;20052;-77
2023/07/08 03:05:30;;;;;;;0.03;0.03;;;;;;;19.00;58.21;101693.31;5079523;28;20032;-77
2023/07/08 03:07:56;;;;;;;1.67;1.58;;;;;;;19.00;58.62;101704.03;5080681;28;20017;-78
2023/07/08 03:10:22;;;;;;;0.10;0.10;;;;;;;18.98;57.96;101709.50;5082935;28;20028;-78
2023/07/08 03:12:49;;;;;;;1.33;1.27;;;;;;;18.97;58.02;101696.13;5083364;28;20031;-78
2023/07/08 03:15:15;;;;;;;0.10;0.10;;;;;;;18.95;58.34;101696.16;5078769;28;20056;-78
2023/07/08 03:17:41;;;;;;;0.00;0.00;;;;;;;18.95;58.35;101696.16;5080795;28;20430;-78
2023/07/08 03:20:08;;;;;;;0.20;0.20;;;;;;;18.95;58.86;101696.16;5078663;28;20036;-78
2023/07/08 03:22:34;;;;;;;0.00;0.00;;;;;;;18.94;58.35;101704.31;5080187;28;20032;-78
2023/07/08 03:25:00;;;;;;;0.00;0.00;;;;;;;18.92;58.43;101699.00;5075141;28;20059;-77
2023/07/08 03:27:26;;;;;;;0.00;0.00;;;;;;;18.91;58.63;101706.16;5072182;28;20059;-77
2023/07/08 03:29:52;;;;;;;0.10;0.10;;;;;;;18.99;58.94;101708.56;5071236;28;20032;-77
2023/07/08 03:32:21;;;;;;;0.00;0.00;;;;;;;19.05;58.47;101704.72;5071623;28;20107;-78
2023/07/08 03:34:47;;;;;;;0.03;0.03;;;;;;;19.03;57.91;101710.16;5076267;28;20036;-77
2023/07/08 03:37:13;;;;;;;0.10;0.10;;;;;;;19.04;57.89;101709.22;5073746;28;20126;-77
2023/07/08 03:39:40;;;;;;;0.55;0.55;;;;;;;18.91;58.83;101713.34;5073711;28;20024;-77
2023/07/08 03:42:06;;;;;;;2.05;1.40;;;;;;;18.89;58.77;101709.81;5076805;28;20109;-77
2023/07/08 03:44:32;;;;;;;0.15;0.15;;;;;;;18.88;58.78;101713.47;5079546;28;20031;-78
2023/07/08 03:46:58;;;;;;;0.10;0.10;;;;;;;18.88;59.08;101718.84;5077143;28;20129;-77
2023/07/08 03:49:24;;;;;;;0.10;0.10;;;;;;;18.88;58.48;101713.47;5076553;28;20025;-77
2023/07/08 03:51:53;;;;;;;0.05;0.05;;;;;;;18.99;58.18;101713.94;5070161;28;20032;-77
2023/07/08 03:54:22;;;;;;;0.00;0.00;;;;;;;19.06;58.50;101717.22;5072633;28;20711;-77
2023/07/08 03:56:48;;;;;;;0.10;0.10;;;;;;;19.06;58.77;101720.75;5071984;28;20390;-77
2023/07/08 03:59:14;;;;;;;0.47;0.47;;;;;;;19.07;58.36;101722.53;5069945;28;20032;-76
2023/07/08 04:01:41;;;;;;;0.17;0.17;;;;;;;19.06;58.33;101725.28;5070572;28;20024;-77
2023/07/08 04:04:11;;;;;;;0.10;0.10;;;;;;;19.07;58.00;101722.53;5070634;28;20048;-77
2023/07/08 04:06:37;;;;;;;0.00;0.00;;;;;;;19.09;58.02;101730.53;5070683;28;20431;-77
2023/07/08 04:09:03;;;;;;;0.20;0.20;;;;;;;19.12;57.87;101726.84;5070799;28;20035;-77
2023/07/08 04:11:29;;;;;;;0.00;0.00;;;;;;;19.14;57.70;101723.16;5072649;28;20036;-78
2023/07/08 04:13:56;;;;;;;0.10;0.10;;;;;;;19.17;57.74;101719.47;5076244;28;20028;-78
2023/07/08 04:16:28;;;;;;;0.10;0.10;;;;;;;19.21;57.97;101715.69;5079191;28;20153;-78
2023/07/08 04:18:55;;;;;;;0.10;0.10;;;;;;;19.21;57.61;101713.00;5078211;28;20028;-78
2023/07/08 04:21:22;;;;;;;0.00;0.00;;;;;;;19.14;58.10;101717.78;5074015;28;20032;-77
2023/07/08 04:23:49;;;;;;;0.28;0.28;;;;;;;19.13;58.27;101715.13;5078465;28;20066;-78
2023/07/08 04:26:15;;;;;;;0.08;0.08;;;;;;;19.13;58.57;101715.13;5077913;28;20028;-77
2023/07/08 04:28:42;;;;;;;0.00;0.00;;;;;;;19.21;58.73;101724.63;5072832;28;20401;-77
2023/07/08 04:31:08;;;;;;;0.10;0.10;;;;;;;19.26;58.20;101727.13;5065877;28;20573;-77
2023/07/08 04:33:34;;;;;;;0.10;0.10;;;;;;;19.29;57.87;101724.31;5070274;28;20042;-77
2023/07/08 04:36:00;;;;;;;0.00;0.00;;;;;;;19.23;58.04;101728.13;5069086;28;20640;-76
2023/07/08 04:38:27;;;;;;;0.00;0.00;;;;;;;19.21;58.13;101721.06;5070427;28;20090;-77
2023/07/08 04:40:54;;;;;;;0.00;0.00;;;;;;;19.23;58.30;101716.53;5072191;28;20118;-78
2023/07/08 04:43:21;;;;;;;0.03;0.03;;;;;;;19.23;58.65;101709.31;5079232;28;20036;-77
2023/07/08 04:45:51;;;;;;;0.00;0.00;;;;;;;19.26;59.02;101719.06;5075171;28;20060;-77
2023/07/08 04:48:21;;;;;;;0.00;0.00;;;;;;;19.27;58.92;101718.13;5079631;28;20606;-78
2023/07/08 04:50:49;;;;;;;0.00;0.00;;;;;;;19.29;58.73;101721.63;5072962;28;20040;-77
2023/07/08 04:53:16;;;;;;;0.00;0.00;;;;;;;19.32;58.70;101726.00;5065333;28;20111;-77
2023/07/08 04:55:46;;;;;;;0.00;0.00;;;;;;;19.36;58.63;101723.09;5073085;28;20025;-77
2023/07/08 04:58:13;;;;;;;0.55;0.55;;;;;;;19.38;58.52;101742.72;5074634;28;20068;-78
2023/07/08 05:00:39;;;;;;;0.00;0.00;;;;;;;19.42;58.31;101737.22;5078975;28;20052;-79
2023/07/08 05:03:05;;;;;;;0.00;0.00;;;;;;;19.45;58.23;101729.03;5078778;28;20100;-77
2023/07/08 05:05:31;;;;;;;0.00;0.00;;;;;;;19.49;58.43;101727.94;5079631;28;20141;-78
2023/07/08 05:07:57;;;;;;;0.00;0.00;;;;;;;19.51;58.32;101718.88;5074786;28;20024;-78
2023/07/08 05:10:23;;;;;;;0.00;0.00;;;;;;;19.54;58.38;101717.88;5072142;28;20017;-78
2023/07/08 05:12:49;;;;;;;0.10;0.10;;;;;;;19.58;58.27;101724.88;5070513;28;20028;-79
2023/07/08 05:15:16;;;;;;;0.00;0.00;;;;;;;19.61;58.08;101722.03;5069298;28;20043;-78
2023/07/08 05:17:42;;;;;;;0.00;0.00;;;;;;;19.66;58.03;101716.44;5071356;28;20031;-77
2023/07/08 05:20:12;;;;;;;0.00;0.00;;;;;;;19.70;58.08;101718.94;5073541;28;20028;-78
2023/07/08 05:22:39;;;;;;;0.38;0.38;;;;;;;19.75;58.25;101721.44;5072026;28;20033;-78
2023/07/08 05:25:06;;;;;;;0.00;0.00;;;;;;;19.79;57.79;101714.06;5074086;28;20036;-77
2023/07/08 05:27:33;;;;;;;0.00;0.00;;;;;;;19.82;58.04;101719.34;5073849;28;20043;-78
2023/07/08 05:30:01;;;;;;;0.40;0.40;;;;;;;19.87;57.95;101720.03;5069267;28;20512;-77
2023/07/08 05:32:27;;;;;;;0.00;0.00;;;;;;;19.91;57.81;101727.00;5067507;28;20028;-77
2023/07/08 05:34:54;;;;;;;0.00;0.00;;;;;;;19.97;57.85;101723.19;5073393;28;20111;-78
2023/07/08 05:37:24;;;;;;;0.10;0.10;;;;;;;20.01;57.70;101725.66;5074446;28;20025;-78
2023/07/08 05:39:51;;;;;;;0.00;0.00;;;;;;;20.07;57.24;101720.94;5076900;28;20490;-79
2023/07/08 05:42:19;;;;;;;0.00;0.00;;;;;;;20.12;57.55;101722.47;5076460;28;20029;-77
2023/07/08 05:44:45;;;;;;;0.10;0.10;;;;;;;20.17;57.41;101724.94;5075016;28;20127;-78
2023/07/08 05:47:12;;;;;;;0.00;0.00;;;;;;;20.22;57.06;101725.59;5074984;28;20032;-78
2023/07/08 05:49:38;;;;;;;0.10;0.10;;;;;;;20.26;56.98;101724.53;5076601;28;20074;-78
2023/07/08 05:52:10;;;;;;;0.43;0.43;;;;;;;20.29;56.98;101729.75;5081169;28;20037;-79
2023/07/08 05:54:37;;;;;;;0.00;0.00;;;;;;;20.35;56.67;101732.16;5080706;28;20403;-78
2023/07/08 05:57:03;;;;;;;0.00;0.00;;;;;;;20.38;57.01;101723.06;5075392;28;20418;-77
2023/07/08 05:59:29;;;;;;;0.20;0.20;;;;;;;20.44;56.71;101724.59;5077608;28;20054;-78
2023/07/08 06:01:55;;;;;;;0.00;0.00;;;;;;;20.48;57.58;101724.38;5079198;28;20063;-77
2023/07/08 06:04:22;;;;;;;0.65;0.65;;;;;;;20.53;56.88;101721.47;5079785;28;20032;-77
2023/07/08 06:06:48;;;;;;;0.00;0.00;;;;;;;20.58;56.66;101732.88;5082284;28;20033;-78
2023/07/08 06:09:14;;;;;;;0.00;0.00;;;;;;;20.65;56.55;101737.03;5080061;28;20123;-79
2023/07/08 06:11:40;;;;;;;0.05;0.05;;;;;;;20.71;56.57;101730.53;5079434;28;20048;-78
2023/07/08 06:14:06;;;;;;;0.10;0.10;;;;;;;20.76;56.46;101719.50;5080973;28;20414;-78
2023/07/08 06:16:34;;;;;;;0.00;0.00;;;;;;;20.83;56.33;101723.63;5078669;28;20020;-77
2023/07/08 06:19:00;;;;;;;0.00;0.00;;;;;;;20.89;56.56;101719.78;5078177;28;20425;-78
2023/07/08 06:21:26;;;;;;;0.00;0.00;;;;;;;20.96;56.04;101723.91;5082671;28;20027;-78
2023/07/08 06:23:53;;;;;;;0.10;0.10;;;;;;;21.04;56.06;101726.22;5083437;28;20048;-78
2023/07/08 06:26:19;;;;;;;0.00;0.00;;;;;;;21.10;55.98;101720.53;5081690;28;20052;-78
2023/07/08 06:28:45;;;;;;;0.00;0.00;;;;;;;21.16;55.73;101726.47;5075822;28;20593;-77
2023/07/08 06:31:11;;;;;;;0.10;0.10;;;;;;;21.25;55.71;101724.28;5078636;28;20047;-78
2023/07/08 06:33:37;;;;;;;0.20;0.20;;;;;;;21.31;55.60;101719.44;5079486;28;20101;-78
2023/07/08 06:36:04;;;;;;;0.10;0.10;;;;;;;21.40;55.46;101718.06;5082643;28;20032;-77
2023/07/08 06:38:30;;;;;;;0.00;0.00;;;;;;;21.47;55.37;101715.91;5080521;28;20059;-78
2023/07/08 06:40:56;;;;;;;0.00;0.00;;;;;;;21.53;55.03;101710.22;5078764;28;20028;-78
2023/07/08 06:43:22;;;;;;;0.00;0.00;;;;;;;21.62;54.96;101717.88;5079074;28;20044;-78
2023/07/08 06:45:48;;;;;;;0.10;0.10;;;;;;;21.73;54.84;101724.50;5080125;28;20030;-78
2023/07/08 06:48:14;;;;;;;0.00;0.00;;;;;;;21.82;54.56;101713.25;5083153;28;20027;-77
2023/07/08 06:50:45;;;;;;;0.00;0.00;;;;;;;21.87;55.33;101719.25;5085594;28;20035;-77
2023/07/08 06:53:11;;;;;;;0.10;0.10;;;;;;;22.00;54.49;101713.19;5085772;28;20025;-78
2023/07/08 06:55:38;;;;;;;0.00;0.00;;;;;;;22.07;54.51;101719.97;5085457;28;20436;-77
2023/07/08 06:58:04;;;;;;;0.10;0.10;;;;;;;22.18;54.15;101708.59;5074196;28;20096;-78
2023/07/08 07:00:30;;;;;;;0.00;0.00;;;;;;;22.25;54.10;101707.31;5082735;28;20029;-77
2023/07/08 07:02:56;;;;;;;0.10;0.10;;;;;;;22.30;53.57;101703.38;5082803;28;20060;-77
2023/07/08 07:05:23;;;;;;;0.00;0.00;;;;;;;22.41;53.48;101710.06;5079071;28;20085;-78
2023/07/08 07:07:52;;;;;;;0.10;0.10;;;;;;;22.49;53.44;101707.78;5079638;28;20037;-77
2023/07/08 07:10:21;;;;;;;0.00;0.00;;;;;;;22.59;53.12;101714.41;5075792;28;20025;-77
2023/07/08 07:12:47;;;;;;;0.03;0.03;;;;;;;22.66;53.08;101703.25;5077770;28;20056;-77
2023/07/08 07:15:13;;;;;;;0.55;0.55;;;;;;;22.75;53.20;101709.00;5078051;28;20047;-78
2023/07/08 07:17:39;;;;;;;0.00;0.00;;;;;;;22.81;52.93;101702.38;5078838;28;20029;-78
2023/07/08 07:20:06;;;;;;;0.00;0.00;;;;;;;22.88;52.98;101698.34;5077597;28;20503;-77
2023/07/08 07:22:32;;;;;;;0.00;0.00;;;;;;;22.90;52.41;101701.84;5073207;28;20119;-78
2023/07/08 07:24:59;;;;;;;0.10;0.10;;;;;;;23.02;52.10;101700.22;5073914;28;20538;-78
2023/07/08 07:27:25;;;;;;;0.00;0.00;;;;;;;23.12;52.52;101695.16;5071891;28;20040;-77
2023/07/08 07:29:52;;;;;;;0.10;0.10;;;;;;;23.21;52.53;101691.91;5068881;28;20078;-77
2023/07/08 07:32:22;;;;;;;0.10;0.10;;;;;;;23.30;52.36;101697.75;5076483;28;20052;-78
2023/07/08 07:34:52;;;;;;;0.03;0.03;;;;;;;23.39;52.26;101697.19;5080746;28;20025;-78
2023/07/08 07:37:21;;;;;;;0.10;0.10;;;;;;;23.50;52.10;101704.66;5081476;28;20030;-78
2023/07/08 07:39:47;;;;;;;0.00;0.00;;;;;;;23.59;52.10;101702.25;5079739;28;20180;-78
2023/07/08 07:42:15;;;;;;;0.05;0.05;;;;;;;23.69;51.64;101698.97;5081485;28;20081;-77
2023/07/08 07:44:41;;;;;;;0.00;0.00;;;;;;;23.79;51.97;101702.84;5079009;28;20037;-78
2023/07/08 07:47:11;;;;;;;0.10;0.10;;;;;;;23.89;51.91;101695.03;5080677;28;20047;-77
2023/07/08 07:49:38;;;;;;;0.00;0.00;;;;;;;23.97;51.45;101692.72;5082319;28;20102;-79
2023/07/08 07:52:05;;;;;;;0.10;0.10;;;;;;;24.09;51.73;101693.81;5083367;28;20085;-79
2023/07/08 07:54:32;;;;;;;0.08;0.08;;;;;;;24.19;51.41;101694.09;5079959;28;20429;-79
2023/07/08 07:56:58;;;;;;;0.00;0.00;;;;;;;24.30;51.31;101682.53;5072166;28;20029;-77
2023/07/08 07:59:24;;;;;;;0.00;0.00;;;;;;;24.41;51.30;101688.13;5080222;28;20042;-79
2023/07/08 08:01:50;;;;;;;0.10;0.10;;;;;;;24.50;50.39;101695.66;5073580;28;20028;-76
2023/07/08 08:04:17;;;;;;;0.08;0.08;;;;;;;24.62;50.56;101693.97;5076667;28;20151;-77
2023/07/08 08:06:43;;;;;;;0.20;0.20;;;;;;;24.70;49.51;101693.53;5078095;28;20031;-78
2023/07/08 08:09:09;;;;;;;0.08;0.08;;;;;;;24.80;50.11;101701.88;5078448;28;20107;-78
2023/07/08 08:11:35;;;;;;;0.03;0.03;;;;;;;24.88;49.09;101699.53;5080088;28;20021;-78
2023/07/08 08:14:03;;;;;;;0.00;0.00;;;;;;;25.00;50.03;101706.84;5078203;28;20107;-77
2023/07/08 08:16:30;;;;;;;0.03;0.03;;;;;;;25.12;49.82;101706.97;5074841;28;20044;-78
2023/07/08 08:18:56;;;;;;;0.05;0.05;;;;;;;25.22;49.41;101713.50;5079290;28;20076;-78
2023/07/08 08:21:22;;;;;;;0.45;0.45;;;;;;;25.33;49.42;101707.34;5074121;28;20044;-77
2023/07/08 08:23:48;;;;;;;0.00;0.00;;;;;;;25.45;49.32;101705.66;5073817;28;20129;-77
2023/07/08 08:26:14;;;;;;;0.10;0.10;;;;;;;25.54;49.72;101698.72;5085017;28;20027;-77
2023/07/08 08:28:41;;;;;;;0.40;0.40;;;;;;;25.65;49.57;101698.84;5085003;28;20059;-77
2023/07/08 08:31:07;;;;;;;0.15;0.15;;;;;;;25.74;49.12;101697.31;5086887;28;20116;-78
2023/07/08 08:33:33;;;;;;;0.10;0.10;;;;;;;25.84;48.94;101704.72;5086022;28;20032;-78
2023/07/08 08:35:59;;;;;;;0.00;0.00;;;;;;;25.95;48.56;101711.22;5083513;28;20039;-77
2023/07/08 08:38:25;;;;;;;0.00;0.00;;;;;;;26.06;48.54;101707.75;5082833;28;20041;-77
2023/07/08 08:40:51;;;;;;;0.10;0.10;;;;;;;26.13;47.94;101709.03;5082325;28;20040;-78
2023/07/08 08:43:22;;;;;;;0.10;0.10;;;;;;;26.26;48.44;101709.88;5082682;28;20044;-77
2023/07/08 08:45:56;;;;;;;0.20;0.20;;;;;;;26.38;48.34;101708.13;5083879;28;20029;-76
2023/07/08 08:48:23;;;;;;;0.10;0.10;;;;;;;26.44;47.00;101704.97;5080612;28;20303;-78
2023/07/08 08:50:53;;;;;;;0.15;0.15;;;;;;;26.54;47.22;101704.25;5078963;28;20020;-78
2023/07/08 08:53:22;;;;;;;0.40;0.40;;;;;;;26.62;47.28;101707.28;5080152;28;20701;-77
2023/07/08 08:56:11;;;;;;;0.10;0.10;;;;;;;26.71;46.47;101708.44;5082326;28;20119;-78
2023/07/08 09:01:17;;;;;;;0.15;0.15;;;;;;;26.87;47.12;101697.31;5132048;27;20384;-79
2023/07/08 09:06:27;;;;;;;0.05;0.05;;;;;;;27.05;46.61;101687.72;5136904;27;20383;-78
2023/07/08 09:08:56;;;;;;;0.40;0.40;;;;;;;27.16;46.69;101691.50;5132558;27;20031;-78
2023/07/08 09:11:55;;;;;;;0.10;0.10;;;;;;;27.31;46.45;101689.44;5128089;27;20105;-78
2023/07/08 09:14:26;;;;;;;0.20;0.20;;;;;;;27.38;46.50;101705.16;5117868;28;20091;-79
2023/07/08 09:19:43;;;;;;;0.10;0.10;;;;;;;27.57;46.17;101698.31;5076112;28;20412;-80
2023/07/08 09:22:20;;;;;;;0.00;0.00;;;;;;;27.67;45.98;101696.56;5061855;28;20064;-79
2023/07/08 09:27:25;;;;;;;0.10;0.10;;;;;;;27.87;45.92;101708.59;5097987;28;20382;-78
2023/07/08 09:29:51;;;;;;;2.00;0.88;;;;;;;27.98;44.61;101706.88;5093953;28;20036;-78
2023/07/08 09:34:56;;;;;;;0.30;0.30;;;;;;;28.18;45.37;101708.88;5090476;27;20470;-75
2023/07/08 09:37:26;;;;;;;0.45;0.45;;;;;;;28.30;45.03;101720.66;5096421;28;20025;-79
2023/07/08 09:39:54;;;;;;;0.20;0.20;;;;;;;28.38;44.68;101711.84;5095811;28;20043;-78
2023/07/08 09:42:22;;;;;;;0.30;0.30;;;;;;;28.52;44.57;101705.22;5086999;28;20052;-79
2023/07/08 09:44:57;;;;;;;0.10;0.10;;;;;;;28.61;44.68;101706.31;5102492;28;20024;-79
2023/07/08 09:47:30;;;;;;;4.10;0.75;;;;;;;28.70;44.05;101706.47;5083358;28;20089;-77
2023/07/08 09:49:58;;;;;;;0.20;0.20;;;;;;;28.80;44.40;101700.22;5091569;28;20039;-79
2023/07/08 09:52:24;;;;;;;0.10;0.10;;;;;;;28.88;44.56;101697.72;5096463;28;20028;-80
2023/07/08 09:54:50;;;;;;;0.10;0.10;;;;;;;28.95;43.07;101698.06;5092712;28;20413;-79
2023/07/08 09:59:58;;;;;;;0.00;0.00;;;;;;;29.18;44.04;101698.81;5061753;28;20406;-79
2023/07/08 10:02:35;;;;;;;0.00;0.00;;;;;;;29.28;43.65;101697.03;5037999;28;20109;-77
2023/07/08 10:05:31;;;;;;;0.20;0.20;;;;;;;29.33;43.19;101692.06;5028002;28;20022;-76
2023/07/08 10:08:00;;;;;;;0.00;0.00;;;;;;;29.44;43.26;101693.00;5018222;28;20084;-76
2023/07/08 10:10:31;;;;;;;0.10;0.10;;;;;;;29.53;43.06;101692.19;5028123;28;20049;-76
2023/07/08 10:13:03;;;;;;;0.20;0.20;;;;;;;29.64;43.11;101694.84;5032686;28;20499;-77
2023/07/08 10:15:39;;;;;;;0.15;0.15;;;;;;;29.76;42.29;101692.03;5034434;28;20045;-78
2023/07/08 10:18:14;;;;;;;1.55;1.45;;;;;;;29.83;41.52;101693.22;5032497;28;20519;-77
2023/07/08 10:21:05;;;;;;;0.20;0.20;;;;;;;29.93;42.80;101683.22;5034817;28;20038;-78
2023/07/08 10:26:32;;;;;;;0.65;0.65;;;;;;;30.16;42.02;101683.03;5075132;28;20394;-79
2023/07/08 10:29:15;;;;;;;0.17;0.17;;;;;;;30.19;41.82;101677.28;5057513;28;20491;-79
2023/07/08 10:32:01;;;;;;;0.22;0.22;;;;;;;30.28;40.47;101687.38;5052585;28;20033;-79
2023/07/08 10:37:25;;;;;;;0.13;0.13;;;;;;;30.51;41.49;101698.09;5156005;27;20385;-79
2023/07/08 10:46:10;;;;;;;0.00;0.00;;;;;;;30.88;39.71;101693.81;5113405;27;20410;-79
2023/07/08 10:52:06;;;;;;;0.30;0.30;;;;;;;31.08;38.39;101695.59;5085256;27;20390;-79
2023/07/08 10:54:48;;;;;;;0.00;0.00;;;;;;;31.15;37.79;101690.38;5071206;28;20044;-78
2023/07/08 10:57:33;;;;;;;0.10;0.10;;;;;;;31.23;39.68;101690.53;5067227;28;20116;-79
2023/07/08 11:02:56;;;;;;;0.10;0.10;;;;;;;31.37;39.62;101689.19;5103787;27;20750;-78
2023/07/08 11:10:49;;;;;;;0.55;0.55;;;;;;;31.66;38.04;101682.81;5114622;27;20388;-80
2023/07/08 11:13:19;;;;;;;0.45;0.45;;;;;;;31.74;38.83;101673.84;5114140;28;20027;-78
2023/07/08 11:21:12;;;;;;;1.10;0.93;;;;;;;32.06;37.98;101686.25;5106319;27;20385;-77
2023/07/08 11:23:43;;;;;;;0.10;0.10;;;;;;;32.17;38.21;101685.19;5090006;28;20108;-79
2023/07/08 11:26:27;;;;;;;0.38;0.38;;;;;;;32.28;38.21;101684.13;5093882;28;20032;-78
2023/07/08 11:28:57;;;;;;;0.10;0.10;;;;;;;32.33;37.82;101679.06;5101097;28;20029;-79
2023/07/08 11:31:25;;;;;;;0.32;0.32;;;;;;;32.41;37.69;101681.88;5091301;28;20085;-78
2023/07/08 11:33:52;;;;;;;0.40;0.40;;;;;;;32.49;38.20;101675.63;5091572;28;20034;-78
2023/07/08 11:36:21;;;;;;;0.00;0.00;;;;;;;32.58;38.29;101675.56;5098941;28;20031;-78
2023/07/08 11:38:50;;;;;;;0.10;0.10;;;;;;;32.66;39.02;101677.56;5099783;28;20074;-80
2023/07/08 11:41:20;;;;;;;0.47;0.47;;;;;;;32.79;37.39;101674.44;5103668;28;20032;-79
2023/07/08 11:43:59;;;;;;;0.57;0.47;;;;;;;32.92;37.02;101668.53;5097739;28;20115;-79
2023/07/08 11:46:30;;;;;;;0.10;0.10;;;;;;;32.96;36.14;101674.56;5097116;28;20028;-80
2023/07/08 11:49:01;;;;;;;0.47;0.45;;;;;;;33.04;35.85;101669.16;5093707;28;20028;-80
2023/07/08 11:51:33;;;;;;;0.43;0.43;;;;;;;33.13;36.76;101664.59;5094314;28;20040;-78
2023/07/08 11:57:03;;;;;;;0.32;0.32;;;;;;;33.30;33.97;101665.59;5097657;27;20389;-77
2023/07/08 11:59:33;;;;;;;0.25;0.25;;;;;;;33.39;35.49;101661.91;5097312;28;20040;-80
2023/07/08 12:02:19;;;;;;;3.72;1.00;;;;;;;33.48;35.36;101649.91;5081435;28;20048;-80
2023/07/08 12:05:11;;;;;;;1.55;0.98;;;;;;;33.54;35.19;101649.28;5070925;28;20028;-78
2023/07/08 12:10:33;;;;;;;7.38;0.88;;;;;;;33.75;35.42;101650.78;5131610;27;20402;-77
2023/07/08 12:12:59;;;;;;;0.15;0.15;;;;;;;33.80;35.91;101650.28;5115406;28;20047;-76
2023/07/08 12:15:31;;;;;;;0.10;0.10;;;;;;;33.90;36.01;101641.91;5133963;28;20035;-77
2023/07/08 12:18:04;;;;;;;1.00;1.00;;;;;;;34.02;35.40;101637.84;5136477;27;20019;-79
2023/07/08 12:20:37;;;;;;;0.98;0.52;;;;;;;34.13;33.71;101634.81;5128676;28;20031;-78
2023/07/08 12:23:11;;;;;;;0.00;0.00;;;;;;;34.17;34.85;101638.94;5120090;27;20031;-77
2023/07/08 12:25:37;;;;;;;0.43;0.43;;;;;;;34.29;34.66;101644.13;5124976;28;20012;-78
2023/07/08 12:28:03;;;;;;;0.30;0.30;;;;;;;34.40;35.21;101635.56;5124632;27;20722;-78
2023/07/08 12:30:32;;;;;;;0.00;0.00;;;;;;;34.47;34.02;101642.13;5124140;28;20497;-78